sensor_id;sensor_type;location;lat;lon;timestamp;P1;durP1;ratioP1;P2;durP2;ratioP2
18789;SDS011;9523;42.650;23.386;2023-07-13T00:01:11;4.38;;;3.75;;
18789;SDS011;9523;42.650;23.386;2023-07-13T00:03:38;5.25;;;3.80;;
18789;SDS011;9523;42.650;23.386;2023-07-13T00:06:06;6.85;;;3.80;;
18789;SDS011;9523;42.650;23.386;2023-07-13T00:08:34;6.18;;;3.60;;
18789;SDS011;9523;42.650;23.386;2023-07-13T00:11:01;4.68;;;3.95;;
18789;SDS011;9523;42.650;23.386;2023-07-13T00:13:27;6.00;;;4.05;;
18789;SDS011;9523;42.650;23.386;2023-07-13T00:15:54;4.35;;;3.67;;
18789;SDS011;9523;42.650;23.386;2023-07-13T00:18:21;4.25;;;3.40;;
18789;SDS011;9523;42.650;23.386;2023-07-13T00:20:48;5.82;;;3.88;;
18789;SDS011;9523;42.650;23.386;2023-07-13T00:23:14;6.25;;;3.92;;
18789;SDS011;9523;42.650;23.386;2023-07-13T00:25:43;4.22;;;3.63;;
18789;SDS011;9523;42.650;23.386;2023-07-13T00:28:10;4.65;;;3.80;;
18789;SDS011;9523;42.650;23.386;2023-07-13T00:30:36;6.25;;;3.85;;
18789;SDS011;9523;42.650;23.386;2023-07-13T00:33:03;6.05;;;3.70;;
18789;SDS011;9523;42.650;23.386;2023-07-13T00:35:30;6.35;;;3.97;;
18789;SDS011;9523;42.650;23.386;2023-07-13T00:37:56;8.75;;;4.30;;
18789;SDS011;9523;42.650;23.386;2023-07-13T00:40:23;5.53;;;4.10;;
18789;SDS011;9523;42.650;23.386;2023-07-13T00:42:52;5.45;;;4.30;;
18789;SDS011;9523;42.650;23.386;2023-07-13T00:48:04;6.43;;;4.28;;
18789;SDS011;9523;42.650;23.386;2023-07-13T00:50:31;5.15;;;4.18;;
18789;SDS011;9523;42.650;23.386;2023-07-13T00:52:57;7.70;;;4.70;;
18789;SDS011;9523;42.650;23.386;2023-07-13T00:55:24;7.47;;;4.88;;
18789;SDS011;9523;42.650;23.386;2023-07-13T00:57:51;7.32;;;4.60;;
18789;SDS011;9523;42.650;23.386;2023-07-13T01:00:19;7.68;;;4.22;;
18789;SDS011;9523;42.650;23.386;2023-07-13T01:02:46;5.38;;;4.30;;
18789;SDS011;9523;42.650;23.386;2023-07-13T01:05:15;5.47;;;4.20;;
18789;SDS011;9523;42.650;23.386;2023-07-13T01:07:43;6.20;;;5.13;;
18789;SDS011;9523;42.650;23.386;2023-07-13T01:10:10;7.25;;;4.30;;
18789;SDS011;9523;42.650;23.386;2023-07-13T01:12:37;5.38;;;4.28;;
18789;SDS011;9523;42.650;23.386;2023-07-13T01:15:04;5.80;;;4.68;;
18789;SDS011;9523;42.650;23.386;2023-07-13T01:17:33;5.50;;;4.18;;
18789;SDS011;9523;42.650;23.386;2023-07-13T01:20:00;4.72;;;4.18;;
18789;SDS011;9523;42.650;23.386;2023-07-13T01:22:28;5.63;;;4.18;;
18789;SDS011;9523;42.650;23.386;2023-07-13T01:24:57;6.47;;;4.72;;
18789;SDS011;9523;42.650;23.386;2023-07-13T01:27:24;7.22;;;4.40;;
18789;SDS011;9523;42.650;23.386;2023-07-13T01:29:52;6.47;;;4.20;;
18789;SDS011;9523;42.650;23.386;2023-07-13T01:32:27;6.82;;;4.80;;
18789;SDS011;9523;42.650;23.386;2023-07-13T01:34:53;4.70;;;4.13;;
18789;SDS011;9523;42.650;23.386;2023-07-13T01:37:20;6.43;;;4.63;;
18789;SDS011;9523;42.650;23.386;2023-07-13T01:39:48;6.82;;;4.95;;
18789;SDS011;9523;42.650;23.386;2023-07-13T01:42:15;6.32;;;4.53;;
18789;SDS011;9523;42.650;23.386;2023-07-13T01:44:41;5.43;;;4.45;;
18789;SDS011;9523;42.650;23.386;2023-07-13T01:47:08;5.82;;;4.47;;
18789;SDS011;9523;42.650;23.386;2023-07-13T01:49:35;6.97;;;4.57;;
18789;SDS011;9523;42.650;23.386;2023-07-13T01:52:02;6.78;;;5.00;;
18789;SDS011;9523;42.650;23.386;2023-07-13T01:54:29;5.20;;;4.30;;
18789;SDS011;9523;42.650;23.386;2023-07-13T01:56:57;6.13;;;4.72;;
18789;SDS011;9523;42.650;23.386;2023-07-13T01:59:23;6.35;;;5.05;;
18789;SDS011;9523;42.650;23.386;2023-07-13T02:01:50;7.63;;;4.75;;
18789;SDS011;9523;42.650;23.386;2023-07-13T02:04:16;6.97;;;4.97;;
18789;SDS011;9523;42.650;23.386;2023-07-13T02:06:43;5.47;;;4.85;;
18789;SDS011;9523;42.650;23.386;2023-07-13T02:09:09;7.03;;;4.55;;
18789;SDS011;9523;42.650;23.386;2023-07-13T02:11:36;6.80;;;4.88;;
18789;SDS011;9523;42.650;23.386;2023-07-13T02:14:04;6.50;;;4.80;;
18789;SDS011;9523;42.650;23.386;2023-07-13T02:16:30;5.57;;;4.28;;
18789;SDS011;9523;42.650;23.386;2023-07-13T02:18:57;6.25;;;5.10;;
18789;SDS011;9523;42.650;23.386;2023-07-13T02:21:25;9.00;;;4.90;;
18789;SDS011;9523;42.650;23.386;2023-07-13T02:23:52;7.00;;;5.20;;
18789;SDS011;9523;42.650;23.386;2023-07-13T02:26:19;7.00;;;5.13;;
18789;SDS011;9523;42.650;23.386;2023-07-13T02:28:45;7.20;;;4.95;;
18789;SDS011;9523;42.650;23.386;2023-07-13T02:31:14;7.22;;;4.90;;
18789;SDS011;9523;42.650;23.386;2023-07-13T02:33:41;5.40;;;4.60;;
18789;SDS011;9523;42.650;23.386;2023-07-13T02:36:07;10.43;;;4.95;;
18789;SDS011;9523;42.650;23.386;2023-07-13T02:38:34;6.50;;;5.18;;
18789;SDS011;9523;42.650;23.386;2023-07-13T02:41:01;9.13;;;5.05;;
18789;SDS011;9523;42.650;23.386;2023-07-13T02:43:28;6.50;;;5.50;;
18789;SDS011;9523;42.650;23.386;2023-07-13T02:45:54;6.57;;;4.82;;
18789;SDS011;9523;42.650;23.386;2023-07-13T02:48:22;6.65;;;5.50;;
18789;SDS011;9523;42.650;23.386;2023-07-13T02:50:49;7.15;;;4.60;;
18789;SDS011;9523;42.650;23.386;2023-07-13T02:53:15;6.70;;;4.95;;
18789;SDS011;9523;42.650;23.386;2023-07-13T02:55:42;5.30;;;4.70;;
18789;SDS011;9523;42.650;23.386;2023-07-13T02:58:12;7.22;;;5.20;;
18789;SDS011;9523;42.650;23.386;2023-07-13T03:00:41;7.68;;;5.05;;
18789;SDS011;9523;42.650;23.386;2023-07-13T03:03:08;5.78;;;5.05;;
18789;SDS011;9523;42.650;23.386;2023-07-13T03:05:36;8.55;;;5.57;;
18789;SDS011;9523;42.650;23.386;2023-07-13T03:08:03;8.68;;;5.53;;
18789;SDS011;9523;42.650;23.386;2023-07-13T03:10:31;9.35;;;5.50;;
18789;SDS011;9523;42.650;23.386;2023-07-13T03:12:57;5.20;;;4.70;;
18789;SDS011;9523;42.650;23.386;2023-07-13T03:15:24;7.55;;;5.47;;
18789;SDS011;9523;42.650;23.386;2023-07-13T03:17:50;8.85;;;4.95;;
18789;SDS011;9523;42.650;23.386;2023-07-13T03:20:17;6.15;;;5.10;;
18789;SDS011;9523;42.650;23.386;2023-07-13T03:22:45;6.85;;;5.45;;
18789;SDS011;9523;42.650;23.386;2023-07-13T03:25:12;9.30;;;5.72;;
18789;SDS011;9523;42.650;23.386;2023-07-13T03:27:38;6.68;;;5.40;;
18789;SDS011;9523;42.650;23.386;2023-07-13T03:30:05;8.00;;;5.18;;
18789;SDS011;9523;42.650;23.386;2023-07-13T03:32:32;7.88;;;5.90;;
18789;SDS011;9523;42.650;23.386;2023-07-13T03:34:59;6.22;;;5.40;;
18789;SDS011;9523;42.650;23.386;2023-07-13T03:37:26;7.72;;;5.45;;
18789;SDS011;9523;42.650;23.386;2023-07-13T03:39:54;9.25;;;5.18;;
18789;SDS011;9523;42.650;23.386;2023-07-13T03:42:21;6.43;;;5.80;;
18789;SDS011;9523;42.650;23.386;2023-07-13T03:44:47;9.60;;;6.18;;
18789;SDS011;9523;42.650;23.386;2023-07-13T03:47:17;11.52;;;5.60;;
18789;SDS011;9523;42.650;23.386;2023-07-13T03:49:44;7.45;;;5.60;;
18789;SDS011;9523;42.650;23.386;2023-07-13T03:52:11;10.23;;;5.63;;
18789;SDS011;9523;42.650;23.386;2023-07-13T03:54:37;9.68;;;5.90;;
18789;SDS011;9523;42.650;23.386;2023-07-13T03:57:06;9.65;;;5.85;;
18789;SDS011;9523;42.650;23.386;2023-07-13T03:59:32;7.85;;;5.78;;
18789;SDS011;9523;42.650;23.386;2023-07-13T04:01:59;8.50;;;5.85;;
18789;SDS011;9523;42.650;23.386;2023-07-13T04:04:25;6.93;;;5.82;;
18789;SDS011;9523;42.650;23.386;2023-07-13T04:06:52;7.22;;;6.03;;
18789;SDS011;9523;42.650;23.386;2023-07-13T04:09:18;10.20;;;6.03;;
18789;SDS011;9523;42.650;23.386;2023-07-13T04:11:46;6.85;;;5.55;;
18789;SDS011;9523;42.650;23.386;2023-07-13T04:14:14;10.68;;;5.72;;
18789;SDS011;9523;42.650;23.386;2023-07-13T04:16:40;7.25;;;5.35;;
18789;SDS011;9523;42.650;23.386;2023-07-13T04:19:07;10.23;;;5.90;;
18789;SDS011;9523;42.650;23.386;2023-07-13T04:21:35;8.55;;;6.10;;
18789;SDS011;9523;42.650;23.386;2023-07-13T04:24:02;6.80;;;5.90;;
18789;SDS011;9523;42.650;23.386;2023-07-13T04:26:29;7.38;;;5.38;;
18789;SDS011;9523;42.650;23.386;2023-07-13T04:28:56;73.75;;;41.28;;
18789;SDS011;9523;42.650;23.386;2023-07-13T04:31:24;60.72;;;36.47;;
18789;SDS011;9523;42.650;23.386;2023-07-13T04:33:50;46.85;;;27.90;;
18789;SDS011;9523;42.650;23.386;2023-07-13T04:36:18;41.35;;;24.42;;
18789;SDS011;9523;42.650;23.386;2023-07-13T04:38:44;23.85;;;15.43;;
18789;SDS011;9523;42.650;23.386;2023-07-13T04:41:12;20.90;;;12.63;;
18789;SDS011;9523;42.650;23.386;2023-07-13T04:43:39;23.40;;;14.30;;
18789;SDS011;9523;42.650;23.386;2023-07-13T04:46:07;20.85;;;13.30;;
18789;SDS011;9523;42.650;23.386;2023-07-13T04:48:38;24.77;;;15.75;;
18789;SDS011;9523;42.650;23.386;2023-07-13T04:51:04;42.00;;;26.13;;
18789;SDS011;9523;42.650;23.386;2023-07-13T04:53:31;10.55;;;8.18;;
18789;SDS011;9523;42.650;23.386;2023-07-13T04:55:59;12.15;;;7.93;;
18789;SDS011;9523;42.650;23.386;2023-07-13T04:58:26;23.33;;;14.38;;
18789;SDS011;9523;42.650;23.386;2023-07-13T05:00:52;9.30;;;6.70;;
18789;SDS011;9523;42.650;23.386;2023-07-13T05:03:19;10.13;;;6.22;;
18789;SDS011;9523;42.650;23.386;2023-07-13T05:05:55;8.65;;;7.03;;
18789;SDS011;9523;42.650;23.386;2023-07-13T05:08:22;10.63;;;6.30;;
18789;SDS011;9523;42.650;23.386;2023-07-13T05:10:49;9.27;;;6.47;;
18789;SDS011;9523;42.650;23.386;2023-07-13T05:13:16;9.45;;;6.82;;
18789;SDS011;9523;42.650;23.386;2023-07-13T05:15:42;11.65;;;7.50;;
18789;SDS011;9523;42.650;23.386;2023-07-13T05:18:09;18.83;;;11.13;;
18789;SDS011;9523;42.650;23.386;2023-07-13T05:20:35;23.55;;;13.07;;
18789;SDS011;9523;42.650;23.386;2023-07-13T05:23:03;15.13;;;9.82;;
18789;SDS011;9523;42.650;23.386;2023-07-13T05:25:30;10.77;;;6.85;;
18789;SDS011;9523;42.650;23.386;2023-07-13T05:27:56;9.30;;;6.63;;
18789;SDS011;9523;42.650;23.386;2023-07-13T05:30:23;7.28;;;6.53;;
18789;SDS011;9523;42.650;23.386;2023-07-13T05:32:49;8.93;;;7.10;;
18789;SDS011;9523;42.650;23.386;2023-07-13T05:35:16;8.10;;;7.13;;
18789;SDS011;9523;42.650;23.386;2023-07-13T05:37:42;10.57;;;6.63;;
18789;SDS011;9523;42.650;23.386;2023-07-13T05:40:10;12.43;;;7.45;;
18789;SDS011;9523;42.650;23.386;2023-07-13T05:42:37;10.25;;;7.47;;
18789;SDS011;9523;42.650;23.386;2023-07-13T05:45:04;13.52;;;7.25;;
18789;SDS011;9523;42.650;23.386;2023-07-13T05:47:30;11.93;;;7.05;;
18789;SDS011;9523;42.650;23.386;2023-07-13T05:49:57;7.57;;;6.78;;
18789;SDS011;9523;42.650;23.386;2023-07-13T05:52:23;12.63;;;6.95;;
18789;SDS011;9523;42.650;23.386;2023-07-13T05:54:50;8.15;;;6.63;;
18789;SDS011;9523;42.650;23.386;2023-07-13T05:57:18;8.55;;;6.65;;
18789;SDS011;9523;42.650;23.386;2023-07-13T05:59:45;10.15;;;6.93;;
18789;SDS011;9523;42.650;23.386;2023-07-13T06:02:11;10.70;;;6.70;;
18789;SDS011;9523;42.650;23.386;2023-07-13T06:04:38;8.75;;;6.40;;
18789;SDS011;9523;42.650;23.386;2023-07-13T06:07:04;11.20;;;7.03;;
18789;SDS011;9523;42.650;23.386;2023-07-13T06:09:31;9.40;;;6.65;;
18789;SDS011;9523;42.650;23.386;2023-07-13T06:11:57;15.00;;;7.32;;
18789;SDS011;9523;42.650;23.386;2023-07-13T06:14:26;9.60;;;6.85;;
18789;SDS011;9523;42.650;23.386;2023-07-13T06:16:52;11.75;;;7.47;;
18789;SDS011;9523;42.650;23.386;2023-07-13T06:19:19;15.25;;;10.13;;
18789;SDS011;9523;42.650;23.386;2023-07-13T06:21:45;10.45;;;7.88;;
18789;SDS011;9523;42.650;23.386;2023-07-13T06:24:12;9.70;;;7.05;;
18789;SDS011;9523;42.650;23.386;2023-07-13T06:26:38;12.80;;;7.93;;
18789;SDS011;9523;42.650;23.386;2023-07-13T06:29:05;13.32;;;8.00;;
18789;SDS011;9523;42.650;23.386;2023-07-13T06:31:33;9.95;;;7.25;;
18789;SDS011;9523;42.650;23.386;2023-07-13T06:33:59;9.75;;;7.32;;
18789;SDS011;9523;42.650;23.386;2023-07-13T06:36:26;10.13;;;6.95;;
18789;SDS011;9523;42.650;23.386;2023-07-13T06:38:53;9.90;;;6.68;;
18789;SDS011;9523;42.650;23.386;2023-07-13T06:41:19;12.70;;;7.28;;
18789;SDS011;9523;42.650;23.386;2023-07-13T06:43:47;10.02;;;7.10;;
18789;SDS011;9523;42.650;23.386;2023-07-13T06:46:13;11.55;;;7.45;;
18789;SDS011;9523;42.650;23.386;2023-07-13T06:48:41;11.32;;;7.15;;
18789;SDS011;9523;42.650;23.386;2023-07-13T06:51:08;10.30;;;7.45;;
18789;SDS011;9523;42.650;23.386;2023-07-13T06:53:37;10.23;;;7.45;;
18789;SDS011;9523;42.650;23.386;2023-07-13T06:56:04;17.65;;;8.85;;
18789;SDS011;9523;42.650;23.386;2023-07-13T06:58:30;14.52;;;9.50;;
18789;SDS011;9523;42.650;23.386;2023-07-13T07:00:57;12.35;;;7.45;;
18789;SDS011;9523;42.650;23.386;2023-07-13T07:03:24;12.20;;;7.85;;
18789;SDS011;9523;42.650;23.386;2023-07-13T07:05:52;16.52;;;8.45;;
18789;SDS011;9523;42.650;23.386;2023-07-13T07:08:18;9.52;;;7.32;;
18789;SDS011;9523;42.650;23.386;2023-07-13T07:10:45;16.48;;;7.22;;
18789;SDS011;9523;42.650;23.386;2023-07-13T07:13:11;17.25;;;7.82;;
18789;SDS011;9523;42.650;23.386;2023-07-13T07:15:38;13.10;;;8.07;;
18789;SDS011;9523;42.650;23.386;2023-07-13T07:18:05;12.68;;;8.40;;
18789;SDS011;9523;42.650;23.386;2023-07-13T07:20:32;12.02;;;8.18;;
18789;SDS011;9523;42.650;23.386;2023-07-13T07:23:00;14.25;;;8.52;;
18789;SDS011;9523;42.650;23.386;2023-07-13T07:25:26;18.58;;;12.05;;
18789;SDS011;9523;42.650;23.386;2023-07-13T07:27:57;14.07;;;8.88;;
18789;SDS011;9523;42.650;23.386;2023-07-13T07:30:23;16.20;;;8.55;;
18789;SDS011;9523;42.650;23.386;2023-07-13T07:32:50;14.43;;;8.60;;
18789;SDS011;9523;42.650;23.386;2023-07-13T07:35:18;19.70;;;8.38;;
18789;SDS011;9523;42.650;23.386;2023-07-13T07:37:44;12.93;;;8.70;;
18789;SDS011;9523;42.650;23.386;2023-07-13T07:40:12;13.70;;;8.25;;
18789;SDS011;9523;42.650;23.386;2023-07-13T07:42:39;14.60;;;8.55;;
18789;SDS011;9523;42.650;23.386;2023-07-13T07:45:06;14.05;;;8.45;;
18789;SDS011;9523;42.650;23.386;2023-07-13T07:47:33;14.00;;;7.80;;
18789;SDS011;9523;42.650;23.386;2023-07-13T07:50:02;12.07;;;7.82;;
18789;SDS011;9523;42.650;23.386;2023-07-13T07:52:29;21.75;;;7.88;;
18789;SDS011;9523;42.650;23.386;2023-07-13T07:54:56;13.90;;;10.52;;
18789;SDS011;9523;42.650;23.386;2023-07-13T07:57:24;19.58;;;9.30;;
18789;SDS011;9523;42.650;23.386;2023-07-13T07:59:50;12.07;;;6.72;;
18789;SDS011;9523;42.650;23.386;2023-07-13T08:02:17;12.38;;;8.05;;
18789;SDS011;9523;42.650;23.386;2023-07-13T08:04:45;13.40;;;9.70;;
18789;SDS011;9523;42.650;23.386;2023-07-13T08:07:12;18.90;;;9.02;;
18789;SDS011;9523;42.650;23.386;2023-07-13T08:09:38;18.92;;;8.88;;
18789;SDS011;9523;42.650;23.386;2023-07-13T08:12:05;20.48;;;9.43;;
18789;SDS011;9523;42.650;23.386;2023-07-13T08:14:33;24.20;;;10.55;;
18789;SDS011;9523;42.650;23.386;2023-07-13T08:16:59;16.90;;;8.60;;
18789;SDS011;9523;42.650;23.386;2023-07-13T08:19:26;9.68;;;7.93;;
18789;SDS011;9523;42.650;23.386;2023-07-13T08:21:54;12.45;;;7.97;;
18789;SDS011;9523;42.650;23.386;2023-07-13T08:24:21;20.13;;;9.20;;
18789;SDS011;9523;42.650;23.386;2023-07-13T08:26:48;16.65;;;9.05;;
18789;SDS011;9523;42.650;23.386;2023-07-13T08:29:15;13.50;;;8.52;;
18789;SDS011;9523;42.650;23.386;2023-07-13T08:31:43;12.05;;;8.20;;
18789;SDS011;9523;42.650;23.386;2023-07-13T08:34:10;28.33;;;10.77;;
18789;SDS011;9523;42.650;23.386;2023-07-13T08:36:36;29.70;;;13.52;;
18789;SDS011;9523;42.650;23.386;2023-07-13T08:39:03;83.07;;;24.70;;
18789;SDS011;9523;42.650;23.386;2023-07-13T08:41:30;37.75;;;14.82;;
18789;SDS011;9523;42.650;23.386;2023-07-13T08:43:58;28.80;;;11.05;;
18789;SDS011;9523;42.650;23.386;2023-07-13T08:46:26;19.40;;;9.63;;
18789;SDS011;9523;42.650;23.386;2023-07-13T08:48:57;15.68;;;8.35;;
18789;SDS011;9523;42.650;23.386;2023-07-13T08:51:26;23.30;;;10.52;;
18789;SDS011;9523;42.650;23.386;2023-07-13T08:53:57;20.67;;;8.88;;
18789;SDS011;9523;42.650;23.386;2023-07-13T08:56:25;15.50;;;8.13;;
18789;SDS011;9523;42.650;23.386;2023-07-13T08:58:54;11.23;;;8.30;;
18789;SDS011;9523;42.650;23.386;2023-07-13T09:01:22;12.00;;;7.40;;
18789;SDS011;9523;42.650;23.386;2023-07-13T09:03:53;9.65;;;7.97;;
18789;SDS011;9523;42.650;23.386;2023-07-13T09:06:27;10.18;;;7.95;;
18789;SDS011;9523;42.650;23.386;2023-07-13T09:08:55;13.73;;;10.18;;
18789;SDS011;9523;42.650;23.386;2023-07-13T09:11:32;9.65;;;7.85;;
18789;SDS011;9523;42.650;23.386;2023-07-13T09:14:04;28.52;;;22.02;;
18789;SDS011;9523;42.650;23.386;2023-07-13T09:16:31;13.68;;;8.35;;
18789;SDS011;9523;42.650;23.386;2023-07-13T09:19:00;13.70;;;8.20;;
18789;SDS011;9523;42.650;23.386;2023-07-13T09:21:30;14.32;;;8.32;;
18789;SDS011;9523;42.650;23.386;2023-07-13T09:23:59;14.82;;;8.40;;
18789;SDS011;9523;42.650;23.386;2023-07-13T09:26:27;17.13;;;12.68;;
18789;SDS011;9523;42.650;23.386;2023-07-13T09:28:57;14.73;;;9.10;;
18789;SDS011;9523;42.650;23.386;2023-07-13T09:31:24;12.50;;;8.20;;
18789;SDS011;9523;42.650;23.386;2023-07-13T09:33:52;24.95;;;18.88;;
18789;SDS011;9523;42.650;23.386;2023-07-13T09:36:20;14.23;;;8.23;;
18789;SDS011;9523;42.650;23.386;2023-07-13T09:38:52;11.95;;;7.57;;
18789;SDS011;9523;42.650;23.386;2023-07-13T09:41:23;12.57;;;8.25;;
18789;SDS011;9523;42.650;23.386;2023-07-13T09:44:06;10.43;;;7.85;;
18789;SDS011;9523;42.650;23.386;2023-07-13T09:46:34;10.65;;;7.50;;
18789;SDS011;9523;42.650;23.386;2023-07-13T09:49:00;10.32;;;8.43;;
18789;SDS011;9523;42.650;23.386;2023-07-13T09:51:27;11.10;;;7.25;;
18789;SDS011;9523;42.650;23.386;2023-07-13T09:53:55;9.40;;;6.80;;
18789;SDS011;9523;42.650;23.386;2023-07-13T09:56:22;10.82;;;7.32;;
18789;SDS011;9523;42.650;23.386;2023-07-13T09:58:49;8.88;;;6.65;;
18789;SDS011;9523;42.650;23.386;2023-07-13T10:01:17;9.85;;;7.13;;
18789;SDS011;9523;42.650;23.386;2023-07-13T10:03:57;11.18;;;7.15;;
18789;SDS011;9523;42.650;23.386;2023-07-13T10:06:23;12.50;;;8.93;;
18789;SDS011;9523;42.650;23.386;2023-07-13T10:08:51;12.25;;;7.85;;
18789;SDS011;9523;42.650;23.386;2023-07-13T10:11:20;12.23;;;7.10;;
18789;SDS011;9523;42.650;23.386;2023-07-13T10:13:50;10.95;;;6.22;;
18789;SDS011;9523;42.650;23.386;2023-07-13T10:16:17;11.48;;;8.43;;
18789;SDS011;9523;42.650;23.386;2023-07-13T10:18:45;12.70;;;7.55;;
18789;SDS011;9523;42.650;23.386;2023-07-13T10:21:13;10.90;;;7.93;;
18789;SDS011;9523;42.650;23.386;2023-07-13T10:23:40;15.27;;;6.88;;
18789;SDS011;9523;42.650;23.386;2023-07-13T10:26:09;12.40;;;6.72;;
18789;SDS011;9523;42.650;23.386;2023-07-13T10:28:40;9.07;;;7.03;;
18789;SDS011;9523;42.650;23.386;2023-07-13T10:31:10;7.82;;;7.03;;
18789;SDS011;9523;42.650;23.386;2023-07-13T10:33:37;11.95;;;6.80;;
18789;SDS011;9523;42.650;23.386;2023-07-13T10:36:05;7.40;;;6.55;;
18789;SDS011;9523;42.650;23.386;2023-07-13T10:38:37;11.13;;;7.50;;
18789;SDS011;9523;42.650;23.386;2023-07-13T10:41:05;13.18;;;6.70;;
18789;SDS011;9523;42.650;23.386;2023-07-13T10:43:33;13.07;;;6.53;;
18789;SDS011;9523;42.650;23.386;2023-07-13T10:46:03;10.82;;;7.22;;
18789;SDS011;9523;42.650;23.386;2023-07-13T10:48:30;11.20;;;7.30;;
18789;SDS011;9523;42.650;23.386;2023-07-13T10:50:59;18.23;;;6.45;;
18789;SDS011;9523;42.650;23.386;2023-07-13T10:53:28;10.15;;;7.63;;
18789;SDS011;9523;42.650;23.386;2023-07-13T10:55:56;12.20;;;7.43;;
18789;SDS011;9523;42.650;23.386;2023-07-13T10:58:28;11.38;;;6.80;;
18789;SDS011;9523;42.650;23.386;2023-07-13T11:00:56;11.25;;;6.32;;
18789;SDS011;9523;42.650;23.386;2023-07-13T11:03:25;9.73;;;6.47;;
18789;SDS011;9523;42.650;23.386;2023-07-13T11:06:05;9.95;;;6.35;;
18789;SDS011;9523;42.650;23.386;2023-07-13T11:08:35;9.55;;;6.75;;
18789;SDS011;9523;42.650;23.386;2023-07-13T11:11:03;10.07;;;6.68;;
18789;SDS011;9523;42.650;23.386;2023-07-13T11:13:38;10.15;;;6.80;;
18789;SDS011;9523;42.650;23.386;2023-07-13T11:16:28;12.30;;;7.05;;
18789;SDS011;9523;42.650;23.386;2023-07-13T11:21:52;8.65;;;4.70;;
18789;SDS011;9523;42.650;23.386;2023-07-13T11:24:28;5.53;;;4.03;;
18789;SDS011;9523;42.650;23.386;2023-07-13T11:26:55;8.07;;;5.05;;
18789;SDS011;9523;42.650;23.386;2023-07-13T11:29:24;6.68;;;5.05;;
18789;SDS011;9523;42.650;23.386;2023-07-13T11:31:52;9.88;;;5.93;;
18789;SDS011;9523;42.650;23.386;2023-07-13T11:34:21;9.57;;;5.82;;
18789;SDS011;9523;42.650;23.386;2023-07-13T11:36:51;8.48;;;4.88;;
18789;SDS011;9523;42.650;23.386;2023-07-13T11:39:18;12.23;;;5.40;;
18789;SDS011;9523;42.650;23.386;2023-07-13T11:41:48;8.07;;;5.10;;
18789;SDS011;9523;42.650;23.386;2023-07-13T11:44:16;6.93;;;4.80;;
18789;SDS011;9523;42.650;23.386;2023-07-13T11:46:46;6.03;;;4.30;;
18789;SDS011;9523;42.650;23.386;2023-07-13T11:49:15;8.48;;;4.85;;
18789;SDS011;9523;42.650;23.386;2023-07-13T11:51:42;8.73;;;5.03;;
18789;SDS011;9523;42.650;23.386;2023-07-13T11:54:14;8.88;;;5.13;;
18789;SDS011;9523;42.650;23.386;2023-07-13T11:56:41;11.65;;;5.25;;
18789;SDS011;9523;42.650;23.386;2023-07-13T11:59:10;8.35;;;5.03;;
18789;SDS011;9523;42.650;23.386;2023-07-13T12:01:41;10.65;;;4.95;;
18789;SDS011;9523;42.650;23.386;2023-07-13T12:04:08;10.38;;;5.38;;
18789;SDS011;9523;42.650;23.386;2023-07-13T12:06:46;8.80;;;5.40;;
18789;SDS011;9523;42.650;23.386;2023-07-13T12:09:14;9.20;;;5.25;;
18789;SDS011;9523;42.650;23.386;2023-07-13T12:11:42;9.90;;;5.00;;
18789;SDS011;9523;42.650;23.386;2023-07-13T12:14:12;9.32;;;4.80;;
18789;SDS011;9523;42.650;23.386;2023-07-13T12:16:40;9.88;;;5.00;;
18789;SDS011;9523;42.650;23.386;2023-07-13T12:19:09;8.88;;;4.70;;
18789;SDS011;9523;42.650;23.386;2023-07-13T12:21:41;10.00;;;5.20;;
18789;SDS011;9523;42.650;23.386;2023-07-13T12:24:14;8.35;;;5.00;;
18789;SDS011;9523;42.650;23.386;2023-07-13T12:26:41;8.05;;;4.68;;
18789;SDS011;9523;42.650;23.386;2023-07-13T12:29:11;9.30;;;4.40;;
18789;SDS011;9523;42.650;23.386;2023-07-13T12:31:42;8.50;;;4.80;;
18789;SDS011;9523;42.650;23.386;2023-07-13T12:34:10;5.95;;;4.45;;
18789;SDS011;9523;42.650;23.386;2023-07-13T12:36:38;9.05;;;4.32;;
18789;SDS011;9523;42.650;23.386;2023-07-13T12:39:15;8.55;;;4.65;;
18789;SDS011;9523;42.650;23.386;2023-07-13T12:41:42;8.05;;;5.22;;
18789;SDS011;9523;42.650;23.386;2023-07-13T12:44:11;8.32;;;4.47;;
18789;SDS011;9523;42.650;23.386;2023-07-13T12:46:38;9.85;;;4.45;;
18789;SDS011;9523;42.650;23.386;2023-07-13T12:49:05;10.52;;;4.60;;
18789;SDS011;9523;42.650;23.386;2023-07-13T12:51:32;9.88;;;4.50;;
18789;SDS011;9523;42.650;23.386;2023-07-13T12:54:05;6.97;;;5.30;;
18789;SDS011;9523;42.650;23.386;2023-07-13T12:56:34;9.15;;;5.35;;
18789;SDS011;9523;42.650;23.386;2023-07-13T12:59:02;10.98;;;4.97;;
18789;SDS011;9523;42.650;23.386;2023-07-13T13:01:32;10.68;;;5.22;;
18789;SDS011;9523;42.650;23.386;2023-07-13T13:04:00;7.38;;;5.22;;
18789;SDS011;9523;42.650;23.386;2023-07-13T13:06:29;8.40;;;4.97;;
18789;SDS011;9523;42.650;23.386;2023-07-13T13:08:56;8.50;;;5.68;;
18789;SDS011;9523;42.650;23.386;2023-07-13T13:11:24;10.00;;;6.03;;
18789;SDS011;9523;42.650;23.386;2023-07-13T13:13:52;10.43;;;5.10;;
18789;SDS011;9523;42.650;23.386;2023-07-13T13:16:20;12.38;;;5.57;;
18789;SDS011;9523;42.650;23.386;2023-07-13T13:18:47;14.80;;;4.90;;
18789;SDS011;9523;42.650;23.386;2023-07-13T13:21:14;9.27;;;5.35;;
18789;SDS011;9523;42.650;23.386;2023-07-13T13:23:41;15.88;;;5.50;;
18789;SDS011;9523;42.650;23.386;2023-07-13T13:26:10;7.15;;;4.78;;
18789;SDS011;9523;42.650;23.386;2023-07-13T13:28:36;12.20;;;5.57;;
18789;SDS011;9523;42.650;23.386;2023-07-13T13:31:04;10.75;;;5.28;;
18789;SDS011;9523;42.650;23.386;2023-07-13T13:33:31;7.68;;;4.97;;
18789;SDS011;9523;42.650;23.386;2023-07-13T13:35:57;10.10;;;5.03;;
18789;SDS011;9523;42.650;23.386;2023-07-13T13:38:25;10.77;;;5.68;;
18789;SDS011;9523;42.650;23.386;2023-07-13T13:40:52;11.23;;;5.55;;
18789;SDS011;9523;42.650;23.386;2023-07-13T13:43:22;7.57;;;5.18;;
18789;SDS011;9523;42.650;23.386;2023-07-13T13:45:51;10.07;;;5.55;;
18789;SDS011;9523;42.650;23.386;2023-07-13T13:48:19;8.23;;;5.20;;
18789;SDS011;9523;42.650;23.386;2023-07-13T13:50:47;8.45;;;5.05;;
18789;SDS011;9523;42.650;23.386;2023-07-13T13:53:13;15.13;;;5.25;;
18789;SDS011;9523;42.650;23.386;2023-07-13T13:55:40;7.78;;;4.90;;
18789;SDS011;9523;42.650;23.386;2023-07-13T13:58:08;12.90;;;6.72;;
18789;SDS011;9523;42.650;23.386;2023-07-13T14:00:35;9.38;;;5.40;;
18789;SDS011;9523;42.650;23.386;2023-07-13T14:03:01;9.15;;;5.00;;
18789;SDS011;9523;42.650;23.386;2023-07-13T14:05:29;9.25;;;5.50;;
18789;SDS011;9523;42.650;23.386;2023-07-13T14:07:57;11.20;;;5.40;;
18789;SDS011;9523;42.650;23.386;2023-07-13T14:10:24;7.82;;;5.90;;
18789;SDS011;9523;42.650;23.386;2023-07-13T14:12:53;12.77;;;6.32;;
18789;SDS011;9523;42.650;23.386;2023-07-13T14:15:22;10.27;;;5.60;;
18789;SDS011;9523;42.650;23.386;2023-07-13T14:17:48;8.10;;;5.40;;
18789;SDS011;9523;42.650;23.386;2023-07-13T14:20:16;9.35;;;5.20;;
18789;SDS011;9523;42.650;23.386;2023-07-13T14:22:45;9.52;;;4.68;;
18789;SDS011;9523;42.650;23.386;2023-07-13T14:25:11;11.10;;;5.57;;
18789;SDS011;9523;42.650;23.386;2023-07-13T14:27:38;11.20;;;5.35;;
18789;SDS011;9523;42.650;23.386;2023-07-13T14:30:07;10.40;;;6.20;;
18789;SDS011;9523;42.650;23.386;2023-07-13T14:32:38;10.05;;;5.68;;
18789;SDS011;9523;42.650;23.386;2023-07-13T14:35:05;14.00;;;7.97;;
18789;SDS011;9523;42.650;23.386;2023-07-13T14:37:31;13.95;;;7.20;;
18789;SDS011;9523;42.650;23.386;2023-07-13T14:39:59;9.02;;;6.28;;
18789;SDS011;9523;42.650;23.386;2023-07-13T14:42:26;10.90;;;6.25;;
18789;SDS011;9523;42.650;23.386;2023-07-13T14:44:53;9.35;;;6.05;;
18789;SDS011;9523;42.650;23.386;2023-07-13T14:47:20;9.07;;;5.75;;
18789;SDS011;9523;42.650;23.386;2023-07-13T14:49:46;13.55;;;5.68;;